Time;durP1;ratioP1;P1;durP2;ratioP2;P2;SDS_P1;SDS_P2;PMS_P1;PMS_P2;Temp;Humidity;BMP_temperature;BMP_pressure;BME280_temperature;BME280_humidity;BME280_pressure;Samples;Min_cycle;Max_cycle;Signal;HPM_P1;HPM_P2
2021/05/17 00:00:35;;;;;;;5.95;3.70;;;6.70;99.90;;;;;;5047295;28;20048;-71
2021/05/17 00:03:32;;;;;;;8.45;3.78;;;6.80;99.90;;;;;;5067342;28;20783;-73
2021/05/17 00:06:08;;;;;;;6.13;3.20;;;6.70;99.90;;;;;;5046450;28;20044;-73
2021/05/17 00:08:35;;;;;;;4.45;3.28;;;6.50;99.90;;;;;;5048544;28;20354;-71
2021/05/17 00:11:02;;;;;;;5.47;3.35;;;6.50;99.90;;;;;;5056526;28;20038;-73
2021/05/17 00:13:29;;;;;;;4.72;3.30;;;6.40;99.90;;;;;;5050217;28;20524;-73
2021/05/17 00:15:56;;;;;;;4.80;3.05;;;6.30;99.90;;;;;;5048780;28;20131;-73
2021/05/17 00:18:22;;;;;;;4.68;3.08;;;6.40;99.90;;;;;;5047762;28;20048;-73
2021/05/17 00:20:50;;;;;;;5.43;3.53;;;6.40;99.90;;;;;;5026401;28;20399;-73
2021/05/17 00:23:17;;;;;;;4.28;3.20;;;6.40;99.90;;;;;;5015878;28;20542;-73
2021/05/17 00:25:44;;;;;;;6.93;4.30;;;6.30;99.90;;;;;;5029958;28;20123;-73
2021/05/17 00:28:11;;;;;;;5.35;2.92;;;6.20;99.90;;;;;;5051039;28;20044;-73
2021/05/17 00:30:38;;;;;;;4.38;2.90;;;6.10;99.90;;;;;;5033203;28;20047;-72
2021/05/17 00:33:07;;;;;;;3.60;2.45;;;6.10;99.90;;;;;;5063944;28;20799;-73
2021/05/17 00:35:34;;;;;;;9.80;2.53;;;6.00;99.90;;;;;;5050786;28;20067;-72
2021/05/17 00:38:06;;;;;;;5.65;2.60;;;5.90;99.90;;;;;;5058462;28;20082;-72
2021/05/17 00:40:34;;;;;;;2.97;2.40;;;5.80;99.90;;;;;;5064507;28;20043;-73
2021/05/17 00:43:07;;;;;;;3.00;2.20;;;5.70;99.90;;;;;;5041279;28;20143;-73
2021/05/17 00:45:34;;;;;;;5.32;2.85;;;5.60;99.90;;;;;;5035395;28;20064;-72
2021/05/17 00:48:02;;;;;;;4.97;2.58;;;5.60;99.90;;;;;;5024760;28;20139;-72
2021/05/17 00:50:29;;;;;;;3.53;2.80;;;5.60;99.90;;;;;;5013097;28;20440;-72
2021/05/17 00:53:06;;;;;;;6.47;2.42;;;5.50;99.90;;;;;;5044650;28;20063;-73
2021/05/17 00:55:34;;;;;;;3.47;2.67;;;5.50;99.90;;;;;;5045277;28;20051;-71
2021/05/17 00:58:07;;;;;;;6.47;2.92;;;5.50;99.90;;;;;;5030063;28;20586;-71
2021/05/17 01:00:35;;;;;;;4.13;2.83;;;5.40;99.90;;;;;;5070223;28;20028;-72
2021/05/17 01:03:09;;;;;;;3.67;2.95;;;5.40;99.90;;;;;;5074676;28;20083;-74
2021/05/17 01:05:51;;;;;;;4.03;2.90;;;5.30;99.90;;;;;;5030850;28;20048;-73
2021/05/17 01:08:23;;;;;;;4.45;2.80;;;5.20;99.90;;;;;;5060205;28;20423;-72
2021/05/17 01:10:57;;;;;;;3.33;2.60;;;5.10;99.90;;;;;;5032739;28;20132;-73
2021/05/17 01:13:28;;;;;;;6.22;3.20;;;5.30;99.90;;;;;;5031388;28;20128;-72
2021/05/17 01:15:58;;;;;;;5.32;3.35;;;5.20;99.90;;;;;;5025779;28;20420;-74
2021/05/17 01:18:26;;;;;;;4.93;3.13;;;5.20;99.90;;;;;;5052236;28;20044;-71
2021/05/17 01:20:57;;;;;;;7.22;3.05;;;5.10;99.90;;;;;;5033424;28;20048;-72
2021/05/17 01:26:02;;;;;;;7.07;2.88;;;5.10;99.90;;;;;;5054648;28;20136;-72
2021/05/17 01:28:33;;;;;;;3.92;3.22;;;5.00;99.90;;;;;;5054978;28;20048;-72
2021/05/17 01:31:02;;;;;;;5.45;3.35;;;5.00;99.90;;;;;;5031026;28;20056;-73
2021/05/17 01:33:41;;;;;;;11.27;3.95;;;5.00;99.90;;;;;;5065751;28;20047;-71
2021/05/17 01:36:10;;;;;;;5.20;3.17;;;5.00;99.90;;;;;;5021732;28;20534;-73
2021/05/17 01:38:47;;;;;;;3.80;3.38;;;4.90;99.90;;;;;;5050793;28;20049;-73
2021/05/17 01:41:17;;;;;;;3.90;3.00;;;4.80;99.90;;;;;;5034870;28;20055;-72
2021/05/17 01:43:47;;;;;;;4.80;3.40;;;4.80;99.90;;;;;;5042572;28;20098;-72
2021/05/17 01:46:17;;;;;;;6.28;3.10;;;4.80;99.90;;;;;;5051121;28;20086;-72
2021/05/17 01:48:48;;;;;;;7.00;2.83;;;4.80;99.90;;;;;;5054367;28;20118;-72
2021/05/17 01:51:17;;;;;;;4.68;3.13;;;4.70;99.90;;;;;;5051558;28;20052;-72
2021/05/17 01:53:46;;;;;;;6.53;2.78;;;4.80;99.90;;;;;;5061473;28;20092;-71
2021/05/17 01:56:14;;;;;;;4.25;3.20;;;4.70;99.90;;;;;;5046460;28;20044;-72
2021/05/17 01:58:41;;;;;;;5.38;3.10;;;4.70;99.90;;;;;;5051492;28;20498;-72
2021/05/17 02:01:18;;;;;;;4.85;3.20;;;4.70;99.90;;;;;;5032905;28;20117;-72
2021/05/17 02:03:47;;;;;;;4.20;3.67;;;4.60;99.90;;;;;;5033025;28;20131;-71
2021/05/17 02:06:16;;;;;;;4.82;3.63;;;4.70;99.90;;;;;;5044295;28;20065;-71
2021/05/17 02:08:50;;;;;;;12.73;4.18;;;4.80;99.90;;;;;;5046243;28;20045;-71
2021/05/17 02:11:24;;;;;;;7.72;4.30;;;4.70;99.90;;;;;;5066160;28;20052;-72
2021/05/17 02:14:02;;;;;;;4.53;3.22;;;4.70;99.90;;;;;;5052284;28;20496;-72
2021/05/17 02:16:30;;;;;;;7.00;2.97;;;4.80;99.90;;;;;;5067087;28;20055;-73
2021/05/17 02:18:57;;;;;;;4.97;3.53;;;4.80;99.90;;;;;;5032411;28;20513;-72
2021/05/17 02:21:24;;;;;;;7.13;3.83;;;4.90;99.90;;;;;;5015905;28;20394;-72
2021/05/17 02:23:51;;;;;;;6.07;3.30;;;4.90;99.90;;;;;;5040239;28;20369;-72
2021/05/17 02:26:19;;;;;;;4.35;3.28;;;4.80;99.90;;;;;;5031384;28;20500;-72
2021/05/17 02:28:50;;;;;;;10.35;3.97;;;4.90;99.90;;;;;;5031087;28;20107;-72
2021/05/17 02:31:17;;;;;;;4.93;3.40;;;4.80;99.90;;;;;;5030025;28;20090;-72
2021/05/17 02:33:44;;;;;;;7.47;3.75;;;4.80;99.90;;;;;;5047266;28;20344;-71
2021/05/17 02:36:12;;;;;;;5.50;3.30;;;4.70;99.90;;;;;;5032145;28;20573;-72
2021/05/17 02:38:39;;;;;;;5.10;3.53;;;4.60;99.90;;;;;;5052956;28;20052;-73
2021/05/17 02:41:09;;;;;;;5.10;3.17;;;4.60;99.90;;;;;;5066176;28;20513;-73
2021/05/17 02:43:36;;;;;;;3.88;2.85;;;4.50;99.90;;;;;;5060057;28;20043;-72
2021/05/17 02:46:10;;;;;;;4.15;2.72;;;4.50;99.90;;;;;;5019995;28;20072;-73
2021/05/17 02:48:41;;;;;;;4.82;3.08;;;4.50;99.90;;;;;;5031708;28;20139;-73
2021/05/17 02:51:09;;;;;;;9.02;6.88;;;4.50;99.90;;;;;;5061070;28;20409;-72
2021/05/17 02:53:36;;;;;;;6.95;5.72;;;4.60;99.90;;;;;;5033327;28;20048;-72
2021/05/17 02:56:14;;;;;;;7.95;6.90;;;4.80;99.90;;;;;;5018928;28;20155;-72
2021/05/17 02:58:54;;;;;;;7.03;5.32;;;4.90;99.90;;;;;;5033444;28;20663;-72
2021/05/17 03:01:27;;;;;;;7.55;4.40;;;4.90;99.90;;;;;;5047778;28;20589;-72
2021/05/17 03:03:57;;;;;;;6.88;5.07;;;4.90;99.90;;;;;;5063058;28;20389;-71
2021/05/17 03:06:38;;;;;;;10.32;4.10;;;4.80;99.90;;;;;;5051105;28;20056;-72
2021/05/17 03:09:08;;;;;;;8.25;4.10;;;4.90;99.90;;;;;;5029284;28;20060;-73
2021/05/17 03:11:46;;;;;;;10.13;4.78;;;4.80;99.90;;;;;;5050984;28;20427;-73
2021/05/17 03:14:17;;;;;;;5.85;3.92;;;4.70;99.90;;;;;;5057201;28;20081;-74
2021/05/17 03:16:53;;;;;;;7.75;3.85;;;4.80;99.90;;;;;;5051215;28;20712;-73
2021/05/17 03:19:22;;;;;;;7.75;3.65;;;4.80;99.90;;;;;;5068371;28;20056;-73
2021/05/17 03:21:52;;;;;;;8.98;4.35;;;4.70;99.90;;;;;;5050179;28;20571;-73
2021/05/17 03:24:20;;;;;;;7.65;4.28;;;4.90;99.90;;;;;;5040341;28;20052;-72
2021/05/17 03:26:48;;;;;;;9.55;4.35;;;4.90;99.90;;;;;;5063824;28;20143;-73
2021/05/17 03:29:15;;;;;;;6.32;4.55;;;4.90;99.90;;;;;;5085079;28;20413;-73
2021/05/17 03:31:42;;;;;;;9.43;4.45;;;4.80;99.90;;;;;;5034231;28;20134;-72
2021/05/17 03:34:09;;;;;;;6.22;4.00;;;4.80;99.90;;;;;;5048785;28;20078;-73
2021/05/17 03:36:38;;;;;;;4.18;3.78;;;4.80;99.90;;;;;;5042493;28;20045;-71
2021/05/17 03:39:05;;;;;;;9.70;3.67;;;4.80;99.90;;;;;;5032887;28;21150;-71
2021/05/17 03:41:32;;;;;;;4.53;3.13;;;4.70;99.90;;;;;;5041123;28;20118;-73
2021/05/17 03:43:59;;;;;;;7.72;4.20;;;4.60;99.90;;;;;;5067842;28;20135;-72
2021/05/17 03:46:26;;;;;;;4.65;3.40;;;4.60;99.90;;;;;;5051514;28;20352;-72
2021/05/17 03:48:52;;;;;;;11.07;3.97;;;4.50;99.90;;;;;;5062806;28;20044;-72
2021/05/17 03:51:20;;;;;;;4.55;3.40;;;4.80;99.90;;;;;;5052154;28;20290;-73
2021/05/17 03:53:46;;;;;;;7.15;3.38;;;4.90;99.90;;;;;;5076134;28;20492;-71
2021/05/17 03:56:13;;;;;;;4.07;3.53;;;5.00;99.90;;;;;;5046874;28;20044;-73
2021/05/17 03:58:40;;;;;;;6.15;4.13;;;5.10;99.90;;;;;;5080099;28;20054;-71
2021/05/17 04:01:07;;;;;;;7.85;3.10;;;5.30;99.90;;;;;;5043206;28;20049;-72
2021/05/17 04:03:34;;;;;;;8.05;3.58;;;5.30;99.90;;;;;;5037527;28;20052;-72
2021/05/17 04:06:20;;;;;;;5.18;3.58;;;5.50;99.90;;;;;;5048334;28;20044;-73
2021/05/17 04:14:18;;;;;;;;;;;5.60;99.90;;;;;;5035968;28;20080;-73
2021/05/17 04:16:45;;;;;;;6.45;4.18;;;5.70;99.90;;;;;;5057883;28;19951;-73
2021/05/17 04:19:12;;;;;;;4.63;4.00;;;5.90;99.90;;;;;;5046346;28;20087;-72
2021/05/17 04:21:40;;;;;;;7.28;4.25;;;5.90;99.90;;;;;;5047465;28;20049;-72
2021/05/17 04:24:07;;;;;;;5.10;3.50;;;6.10;99.90;;;;;;5042655;28;20072;-72
2021/05/17 04:26:34;;;;;;;6.47;3.90;;;6.30;99.90;;;;;;5077819;28;20067;-70
2021/05/17 04:29:01;;;;;;;8.65;4.30;;;6.40;99.90;;;;;;5035399;28;20175;-71
2021/05/17 04:31:28;;;;;;;7.07;3.80;;;6.50;99.90;;;;;;5034726;28;20090;-72
2021/05/17 04:33:55;;;;;;;5.60;3.60;;;6.50;99.90;;;;;;5044078;28;20109;-73
2021/05/17 04:36:23;;;;;;;7.60;4.55;;;6.50;99.90;;;;;;5047955;28;20048;-72
2021/05/17 04:38:49;;;;;;;4.85;3.58;;;6.70;99.90;;;;;;5073175;28;20183;-72
2021/05/17 04:41:16;;;;;;;6.60;4.50;;;6.80;99.90;;;;;;5042159;28;20509;-72
2021/05/17 04:43:43;;;;;;;9.18;4.80;;;7.00;99.90;;;;;;5057977;28;20477;-73
2021/05/17 04:46:10;;;;;;;5.60;4.35;;;7.10;99.90;;;;;;5069102;28;20074;-72
2021/05/17 04:48:48;;;;;;;7.05;4.50;;;7.10;99.90;;;;;;5031884;28;20396;-72
2021/05/17 04:51:16;;;;;;;7.78;4.65;;;7.20;99.90;;;;;;5024548;28;20060;-72
2021/05/17 04:53:43;;;;;;;8.15;4.97;;;7.40;99.90;;;;;;5045061;28;20040;-71
2021/05/17 04:56:10;;;;;;;5.63;4.60;;;7.50;99.90;;;;;;5014717;28;20033;-72
2021/05/17 04:58:37;;;;;;;10.68;4.82;;;7.60;99.90;;;;;;5045904;28;20076;-72
2021/05/17 05:01:04;;;;;;;9.18;5.65;;;7.60;99.90;;;;;;5028951;28;20127;-71
2021/05/17 05:03:31;;;;;;;9.20;4.35;;;7.70;99.90;;;;;;5045894;28;20462;-71
2021/05/17 05:05:59;;;;;;;7.88;4.95;;;7.80;99.90;;;;;;5053643;28;20389;-72
2021/05/17 05:08:27;;;;;;;7.47;5.05;;;8.00;99.90;;;;;;5046860;28;20270;-72
2021/05/17 05:10:54;;;;;;;6.00;5.25;;;8.10;99.90;;;;;;5028337;28;20053;-74
2021/05/17 05:13:21;;;;;;;6.45;5.32;;;8.30;99.90;;;;;;5054038;28;20334;-73
2021/05/17 05:15:52;;;;;;;7.28;4.88;;;8.40;99.90;;;;;;5068410;28;20055;-72
2021/05/17 05:18:20;;;;;;;6.90;4.95;;;8.50;99.90;;;;;;5035548;28;20495;-71
2021/05/17 05:20:47;;;;;;;8.25;4.93;;;8.60;99.90;;;;;;5047224;28;20044;-73
2021/05/17 05:23:16;;;;;;;8.85;4.50;;;8.70;99.90;;;;;;5043117;28;20040;-73
2021/05/17 05:28:19;;;;;;;6.50;5.00;;;8.90;99.90;;;;;;5052168;28;20066;-73
2021/05/17 05:30:56;;;;;;;7.32;5.28;;;9.10;99.90;;;;;;5048716;28;20044;-72
2021/05/17 05:33:23;;;;;;;9.48;5.18;;;9.20;99.90;;;;;;5047924;28;20123;-72
2021/05/17 05:35:50;;;;;;;10.45;5.53;;;9.30;99.90;;;;;;5031766;28;20309;-71
2021/05/17 05:38:17;;;;;;;7.75;4.70;;;9.50;99.90;;;;;;5047510;28;20568;-73
2021/05/17 05:40:44;;;;;;;6.80;6.10;;;9.50;99.90;;;;;;5054451;28;20462;-72
2021/05/17 05:43:11;;;;;;;6.90;4.97;;;9.50;99.90;;;;;;5062434;28;20500;-72
2021/05/17 05:45:45;;;;;;;8.80;5.70;;;9.60;99.90;;;;;;5028627;28;20056;-72
2021/05/17 05:48:13;;;;;;;7.68;5.93;;;9.60;99.90;;;;;;5028842;28;20527;-72
2021/05/17 05:50:46;;;;;;;8.35;6.40;;;9.70;99.90;;;;;;5028384;28;20048;-72
2021/05/17 05:53:14;;;;;;;13.13;6.40;;;9.70;99.90;;;;;;5045426;28;20044;-72
2021/05/17 05:55:43;;;;;;;7.55;6.75;;;9.80;99.90;;;;;;5028522;28;20041;-72
2021/05/17 05:58:10;;;;;;;8.00;6.50;;;9.80;99.90;;;;;;5074900;28;20056;-72
2021/05/17 06:00:37;;;;;;;8.80;6.72;;;9.90;99.90;;;;;;5082223;28;20048;-72
2021/05/17 06:03:14;;;;;;;6.57;5.97;;;9.80;99.90;;;;;;5065699;28;20044;-70
2021/05/17 06:05:41;;;;;;;10.50;7.20;;;9.90;99.90;;;;;;5028048;28;20055;-71
2021/05/17 06:08:11;;;;;;;9.55;6.30;;;9.90;99.90;;;;;;5044982;28;20768;-73
2021/05/17 06:10:39;;;;;;;10.70;6.43;;;9.90;99.90;;;;;;5034184;28;20125;-72
2021/05/17 06:13:08;;;;;;;8.95;6.30;;;10.00;99.90;;;;;;5058743;28;20159;-72
2021/05/17 06:15:39;;;;;;;7.43;6.72;;;10.00;99.90;;;;;;5032021;28;20106;-71
2021/05/17 06:18:07;;;;;;;7.95;6.75;;;10.00;99.90;;;;;;5080329;28;20091;-73
2021/05/17 06:20:34;;;;;;;10.90;6.93;;;10.10;99.90;;;;;;5068514;28;20063;-72
2021/05/17 06:23:12;;;;;;;9.10;6.05;;;10.00;99.90;;;;;;5059380;28;20052;-73
2021/05/17 06:25:41;;;;;;;7.63;6.78;;;10.00;99.90;;;;;;5062990;28;20415;-71
2021/05/17 06:28:10;;;;;;;7.32;6.22;;;10.00;99.90;;;;;;5032031;28;20118;-71
2021/05/17 06:30:51;;;;;;;8.32;6.35;;;9.90;99.90;;;;;;5048716;28;20048;-72
2021/05/17 06:33:21;;;;;;;6.22;5.55;;;10.00;99.90;;;;;;5052270;28;20082;-73
2021/05/17 06:35:53;;;;;;;9.00;6.05;;;10.10;99.90;;;;;;5074566;28;20122;-72
2021/05/17 06:38:20;;;;;;;6.25;5.65;;;10.10;99.90;;;;;;5069153;28;20142;-72
2021/05/17 06:40:48;;;;;;;10.00;6.65;;;10.10;99.90;;;;;;5052542;28;20036;-72
2021/05/17 06:43:15;;;;;;;8.18;6.75;;;10.10;99.90;;;;;;5061275;28;20043;-73
2021/05/17 06:45:42;;;;;;;8.57;5.80;;;10.20;99.90;;;;;;5087272;28;20581;-71
2021/05/17 06:48:14;;;;;;;6.93;6.40;;;10.30;99.90;;;;;;5060156;28;20117;-71
2021/05/17 06:50:41;;;;;;;7.55;6.93;;;10.30;99.90;;;;;;5016575;28;20060;-72
2021/05/17 06:53:13;;;;;;;7.13;6.63;;;10.40;99.90;;;;;;5047482;28;20048;-71
2021/05/17 06:56:07;;;;;;;7.28;6.57;;;10.50;99.90;;;;;;5042097;28;20233;-73
2021/05/17 06:58:38;;;;;;;7.30;6.70;;;10.70;99.90;;;;;;5047902;28;20087;-72
2021/05/17 07:01:05;;;;;;;8.25;6.28;;;10.90;99.90;;;;;;5029624;28;20054;-72
2021/05/17 07:03:32;;;;;;;6.40;6.00;;;11.00;99.90;;;;;;5047413;28;20132;-71
2021/05/17 07:05:59;;;;;;;7.00;6.30;;;11.00;99.90;;;;;;5028737;28;20131;-72
2021/05/17 07:13:58;;;;;;;;;;;11.30;99.90;;;;;;5069711;28;20471;-72
2021/05/17 07:16:25;;;;;;;7.47;6.85;;;11.30;99.90;;;;;;5053328;28;19955;-73
2021/05/17 07:18:52;;;;;;;8.05;7.25;;;11.40;99.90;;;;;;5067867;28;20052;-73
2021/05/17 07:23:46;;;;;;;9.60;8.70;;;11.90;99.90;;;;;;5058925;28;20321;-71
2021/05/17 07:26:17;;;;;;;10.57;9.60;;;12.00;99.90;;;;;;5063892;28;20585;-73
2021/05/17 07:28:48;;;;;;;11.07;10.20;;;12.10;99.90;;;;;;5064063;28;20143;-72
2021/05/17 07:31:15;;;;;;;9.68;9.07;;;12.00;99.90;;;;;;5047375;28;20059;-72
2021/05/17 07:33:44;;;;;;;10.27;9.52;;;12.00;99.90;;;;;;5048951;28;20078;-73
2021/05/17 07:36:12;;;;;;;9.55;8.95;;;12.20;99.90;;;;;;5040449;28;20040;-73
2021/05/17 07:38:40;;;;;;;10.38;9.57;;;12.40;99.90;;;;;;5032476;28;20467;-73
2021/05/17 07:41:07;;;;;;;11.68;10.90;;;12.60;99.90;;;;;;5061718;28;20151;-72
2021/05/17 07:43:34;;;;;;;10.10;9.38;;;12.70;99.90;;;;;;5060520;28;20047;-71
2021/05/17 07:46:01;;;;;;;10.48;9.88;;;12.60;99.90;;;;;;5032809;28;20144;-74
2021/05/17 07:48:28;;;;;;;8.38;7.90;;;12.40;99.90;;;;;;5066782;28;20171;-72
2021/05/17 07:55:21;;;;;;;9.18;8.55;;;12.30;99.90;;;;;;5044459;28;20075;-72
2021/05/17 07:58:18;;;;;;;9.02;8.38;;;12.90;99.90;;;;;;5056271;28;20054;-73
2021/05/17 08:00:45;;;;;;;9.65;9.05;;;12.80;99.90;;;;;;5046898;28;20135;-71
2021/05/17 08:03:34;;;;;;;;;;;;;;;;;;;;;
2021/05/17 08:06:01;;;;;;;9.63;8.73;;;12.90;99.90;;;;;;5045225;28;20056;-73
2021/05/17 08:08:32;;;;;;;10.13;9.52;;;12.80;99.90;;;;;;5043062;28;20135;-73
2021/05/17 08:11:00;;;;;;;11.65;10.85;;;12.70;99.90;;;;;;5015441;28;20446;-74
2021/05/17 08:13:28;;;;;;;10.77;10.25;;;12.90;99.90;;;;;;5070007;28;20134;-74
2021/05/17 08:16:15;;;;;;;10.93;10.43;;;13.30;99.90;;;;;;5040689;28;20040;-73
2021/05/17 08:18:44;;;;;;;11.57;10.57;;;13.50;99.90;;;;;;5034446;28;20191;-74
2021/05/17 08:21:11;;;;;;;11.32;10.73;;;13.60;99.90;;;;;;5047039;28;20064;-73
2021/05/17 08:23:39;;;;;;;11.15;10.45;;;13.50;99.90;;;;;;5045989;28;20350;-73
2021/05/17 08:26:07;;;;;;;11.45;10.88;;;13.50;99.90;;;;;;5035324;28;20141;-73
2021/05/17 08:28:35;;;;;;;10.88;10.38;;;13.50;99.90;;;;;;5025530;28;20148;-73
2021/05/17 08:31:03;;;;;;;10.68;9.90;;;13.50;99.90;;;;;;5019226;28;20158;-72
2021/05/17 08:33:32;;;;;;;11.68;10.88;;;13.40;99.90;;;;;;5057177;28;20121;-73
2021/05/17 08:36:00;;;;;;;11.20;10.50;;;13.40;99.90;;;;;;5027468;28;20132;-74
2021/05/17 08:38:27;;;;;;;11.07;10.32;;;13.40;99.90;;;;;;5068531;28;20078;-74
2021/05/17 08:40:54;;;;;;;10.70;9.93;;;13.50;99.90;;;;;;5041653;28;20048;-74
2021/05/17 08:43:21;;;;;;;11.15;10.35;;;13.40;99.90;;;;;;5045232;28;20079;-74
2021/05/17 08:45:53;;;;;;;10.52;9.63;;;13.40;99.90;;;;;;5031364;28;20115;-73
2021/05/17 08:48:20;;;;;;;10.40;9.13;;;13.20;99.90;;;;;;5064732;28;20041;-74
2021/05/17 08:50:47;;;;;;;9.75;9.13;;;13.20;99.90;;;;;;5044241;28;20140;-74
2021/05/17 08:53:19;;;;;;;9.77;8.85;;;13.40;99.90;;;;;;5013113;28;20041;-73
2021/05/17 08:55:47;;;;;;;8.40;7.57;;;13.40;99.90;;;;;;5048300;28;20429;-73
2021/05/17 08:58:22;;;;;;;7.60;7.20;;;13.30;99.90;;;;;;4983677;28;20089;-72
2021/05/17 09:00:49;;;;;;;7.55;6.80;;;13.10;99.90;;;;;;4980128;28;20042;-73
2021/05/17 09:03:21;;;;;;;7.63;6.78;;;13.10;99.90;;;;;;4989417;28;20068;-72
2021/05/17 09:05:48;;;;;;;8.60;8.00;;;13.30;99.90;;;;;;4992867;28;20284;-73
2021/05/17 09:08:26;;;;;;;10.90;10.02;;;13.30;99.90;;;;;;4987184;28;20149;-74
2021/05/17 09:10:56;;;;;;;10.15;9.65;;;13.60;99.90;;;;;;5004279;28;20076;-74
2021/05/17 09:13:23;;;;;;;9.93;9.32;;;14.00;99.90;;;;;;5006743;28;20100;-73
2021/05/17 09:15:56;;;;;;;10.43;9.80;;;14.40;99.90;;;;;;5017296;28;20510;-74
2021/05/17 09:18:27;;;;;;;10.07;9.48;;;15.00;99.90;;;;;;5014951;28;20049;-74
2021/05/17 09:21:05;;;;;;;10.70;9.98;;;15.20;99.90;;;;;;4995258;28;20046;-74
2021/05/17 09:23:34;;;;;;;11.75;10.98;;;15.00;99.90;;;;;;5011192;28;20128;-74
2021/05/17 09:26:16;;;;;;;11.18;10.57;;;14.70;99.90;;;;;;4990853;28;20140;-74
2021/05/17 09:28:46;;;;;;;9.85;9.45;;;14.30;99.90;;;;;;5029047;28;20045;-73
2021/05/17 09:31:14;;;;;;;9.45;8.98;;;14.10;99.90;;;;;;5012024;28;20468;-73
2021/05/17 09:33:50;;;;;;;9.95;9.45;;;14.00;99.90;;;;;;5008727;28;20057;-74
2021/05/17 09:36:44;;;;;;;10.25;9.75;;;14.10;99.90;;;;;;5009469;28;20131;-74
2021/05/17 09:39:16;;;;;;;9.40;9.10;;;14.30;99.90;;;;;;5007167;28;20136;-73
2021/05/17 09:41:55;;;;;;;11.00;10.50;;;14.20;99.90;;;;;;5005587;28;20076;-74
2021/05/17 09:44:28;;;;;;;10.05;9.65;;;14.20;99.90;;;;;;4994362;28;20123;-74
2021/05/17 09:47:06;;;;;;;10.32;9.93;;;14.50;99.90;;;;;;5007046;28;20128;-74
2021/05/17 09:49:37;;;;;;;10.23;9.82;;;14.60;99.90;;;;;;5017916;28;20462;-74
2021/05/17 09:52:08;;;;;;;11.02;10.43;;;14.80;99.90;;;;;;5045176;28;20140;-74
2021/05/17 09:54:54;;;;;;;10.80;10.20;;;14.80;99.90;;;;;;5002421;28;20461;-73
2021/05/17 09:57:49;;;;;;;10.60;10.10;;;14.50;99.90;;;;;;5033335;28;20056;-74
2021/05/17 10:00:38;;;;;;;10.48;9.85;;;14.30;99.90;;;;;;5001337;28;20041;-73
2021/05/17 10:10:49;;;;;;;12.68;11.88;;;14.80;99.90;;;;;;4977082;28;20041;-75
2021/05/17 10:13:16;;;;;;;14.30;13.25;;;14.70;99.90;;;;;;5028332;28;20045;-76
2021/05/17 10:15:43;;;;;;;16.38;14.85;;;14.80;99.90;;;;;;5042577;28;20506;-75
2021/05/17 10:18:14;;;;;;;17.00;15.40;;;14.80;99.90;;;;;;5008657;28;20045;-76
2021/05/17 10:20:43;;;;;;;10.63;10.02;;;14.60;99.90;;;;;;5007089;28;20037;-76
2021/05/17 10:23:13;;;;;;;10.57;9.98;;;14.40;99.90;;;;;;5005704;28;20046;-76
2021/05/17 10:25:43;;;;;;;10.52;10.13;;;14.40;99.90;;;;;;5006411;28;20045;-76
2021/05/17 10:28:14;;;;;;;10.90;10.43;;;14.50;99.90;;;;;;5021595;28;20045;-74
2021/05/17 10:30:42;;;;;;;10.45;9.85;;;14.50;99.90;;;;;;5025218;28;20514;-75
2021/05/17 10:33:11;;;;;;;9.98;9.55;;;14.60;99.90;;;;;;4988990;28;20124;-74
2021/05/17 10:35:41;;;;;;;11.20;10.70;;;14.70;99.90;;;;;;4991905;28;20436;-75
2021/05/17 10:38:20;;;;;;;10.70;10.30;;;14.90;99.90;;;;;;5008832;28;20049;-76
2021/05/17 10:40:55;;;;;;;10.95;10.45;;;15.20;99.90;;;;;;4991964;28;20052;-75
2021/05/17 10:44:00;;;;;;;10.65;10.25;;;15.10;99.90;;;;;;5011580;28;20291;-75
2021/05/17 10:46:50;;;;;;;;;;;;;;;;;;;;;
2021/05/17 10:49:38;;;;;;;12.35;11.65;;;14.50;99.90;;;;;;5024184;28;20057;-76
2021/05/17 10:52:34;;;;;;;10.25;9.80;;;14.40;99.90;;;;;;4989570;28;20121;-74
2021/05/17 10:55:07;;;;;;;9.73;9.32;;;14.70;99.90;;;;;;4984554;28;20053;-74
2021/05/17 10:57:45;;;;;;;11.35;10.75;;;14.80;99.90;;;;;;5006767;28;20049;-75
2021/05/17 11:00:27;;;;;;;11.07;10.40;;;14.60;99.90;;;;;;5011703;28;20038;-75
2021/05/17 11:03:18;;;;;;;10.45;9.85;;;14.30;99.90;;;;;;4992766;28;20509;-76
2021/05/17 11:05:45;;;;;;;12.20;11.60;;;14.30;99.90;;;;;;5010399;28;20269;-75
2021/05/17 11:08:16;;;;;;;11.30;10.80;;;14.50;99.90;;;;;;5023246;28;20053;-75
2021/05/17 11:10:49;;;;;;;11.15;10.68;;;14.90;99.90;;;;;;5004889;28;20366;-74
2021/05/17 11:13:17;;;;;;;10.93;10.38;;;15.10;99.90;;;;;;4989588;28;20083;-75
2021/05/17 11:15:47;;;;;;;10.45;9.90;;;15.50;99.90;;;;;;4988460;28;20330;-75
2021/05/17 11:18:13;;;;;;;10.35;9.90;;;15.70;99.90;;;;;;5006233;28;20049;-75
2021/05/17 11:20:41;;;;;;;10.50;10.10;;;16.10;99.90;;;;;;5021760;28;20059;-75
2021/05/17 11:23:09;;;;;;;11.75;11.05;;;16.20;99.90;;;;;;5005851;28;20048;-76
2021/05/17 11:26:06;;;;;;;11.57;11.07;;;16.10;99.90;;;;;;4987032;28;20281;-75
2021/05/17 11:28:39;;;;;;;11.27;10.70;;;16.00;99.90;;;;;;5023013;28;20076;-75
2021/05/17 11:34:07;;;;;;;4.97;4.47;;;14.40;99.90;;;;;;5018827;28;20055;-75
2021/05/17 11:37:03;;;;;;;5.38;4.43;;;13.70;99.90;;;;;;4998790;28;20049;-77
2021/05/17 11:39:35;;;;;;;4.10;3.80;;;13.30;99.90;;;;;;5033848;28;20048;-76
2021/05/17 11:42:06;;;;;;;4.53;3.78;;;13.10;99.90;;;;;;5015913;28;20045;-76
2021/05/17 11:44:34;;;;;;;3.65;3.40;;;12.80;99.90;;;;;;4987366;28;20045;-75
2021/05/17 11:47:07;;;;;;;4.97;4.55;;;12.70;99.90;;;;;;4988726;28;20074;-75
2021/05/17 11:49:44;;;;;;;3.75;3.50;;;12.60;99.90;;;;;;4989730;28;20058;-75
2021/05/17 11:52:13;;;;;;;5.43;4.95;;;12.80;99.90;;;;;;4988541;28;20052;-74
2021/05/17 11:54:49;;;;;;;5.13;4.90;;;12.90;99.90;;;;;;5011474;28;20103;-75
2021/05/17 11:57:19;;;;;;;6.05;5.65;;;12.90;99.90;;;;;;5002951;28;20153;-76
2021/05/17 12:04:22;;;;;;;6.68;6.28;;;13.50;99.90;;;;;;4984611;28;20030;-76
2021/05/17 12:07:05;;;;;;;7.22;6.93;;;14.00;99.90;;;;;;5006106;28;20050;-76
2021/05/17 12:09:40;;;;;;;5.97;5.60;;;14.20;99.90;;;;;;4987076;28;20045;-76
2021/05/17 12:12:07;;;;;;;6.80;6.50;;;14.70;99.90;;;;;;5021141;28;20049;-76
2021/05/17 12:14:35;;;;;;;7.32;6.88;;;14.90;99.90;;;;;;5002687;28;20095;-77
2021/05/17 12:17:18;;;;;;;5.28;4.60;;;15.00;99.90;;;;;;4978892;28;20049;-76
2021/05/17 12:19:48;;;;;;;5.10;4.90;;;15.00;99.90;;;;;;5000303;28;20038;-77
2021/05/17 12:22:25;;;;;;;4.43;4.22;;;14.90;99.90;;;;;;5001560;28;20146;-75
2021/05/17 12:24:54;;;;;;;4.20;4.00;;;14.30;99.90;;;;;;4996435;28;20045;-74
2021/05/17 12:27:21;;;;;;;7.72;7.15;;;13.30;99.90;;;;;;4998782;28;20453;-74
2021/05/17 12:30:06;;;;;;;5.00;4.50;;;12.30;99.90;;;;;;4987523;28;20580;-76
2021/05/17 12:32:34;;;;;;;3.15;2.33;;;11.50;99.90;;;;;;5009641;28;20232;-75
2021/05/17 12:35:15;;;;;;;5.00;2.95;;;11.10;99.90;;;;;;4972763;28;20054;-75
2021/05/17 12:37:51;;;;;;;3.40;3.10;;;11.00;99.90;;;;;;5005480;28;20124;-75
2021/05/17 12:40:21;;;;;;;2.13;1.92;;;10.90;99.90;;;;;;5039758;28;20135;-75
2021/05/17 12:43:08;;;;;;;2.08;1.60;;;11.00;99.90;;;;;;5023034;28;20144;-74
2021/05/17 12:45:55;;;;;;;1.50;1.40;;;11.40;99.90;;;;;;5035972;28;20474;-76
2021/05/17 12:48:22;;;;;;;1.70;1.60;;;11.60;99.90;;;;;;5014967;28;20458;-75
2021/05/17 12:50:53;;;;;;;1.83;1.73;;;11.70;99.90;;;;;;4986477;28;20486;-75
2021/05/17 12:53:23;;;;;;;3.25;2.10;;;11.90;99.90;;;;;;4985350;28;20469;-76
2021/05/17 12:55:52;;;;;;;2.05;1.60;;;12.10;99.90;;;;;;5019516;28;20052;-74
2021/05/17 12:58:35;;;;;;;2.47;2.38;;;12.20;99.90;;;;;;5004400;28;20053;-76
2021/05/17 13:01:37;;;;;;;2.88;2.67;;;12.40;99.90;;;;;;4988894;28;20052;-75
2021/05/17 13:04:25;;;;;;;3.85;3.00;;;12.60;99.90;;;;;;4992669;28;20057;-75
2021/05/17 13:07:09;;;;;;;2.58;2.38;;;12.90;99.90;;;;;;5021704;28;20045;-75
2021/05/17 13:09:37;;;;;;;2.22;2.13;;;13.40;99.90;;;;;;4990582;28;20045;-75
2021/05/17 13:12:07;;;;;;;6.75;3.42;;;13.80;99.90;;;;;;5040150;28;20223;-75
2021/05/17 13:14:41;;;;;;;4.65;4.45;;;14.00;99.90;;;;;;5031862;28;20041;-75
2021/05/17 13:17:07;;;;;;;5.20;4.80;;;14.30;99.90;;;;;;5002645;28;20449;-74
2021/05/17 13:33:00;;;;;;;6.47;6.18;;;14.70;99.90;;;;;;5023508;28;20068;-73
2021/05/17 13:35:27;;;;;;;7.57;6.97;;;14.80;99.90;;;;;;4981845;28;20376;-74
2021/05/17 13:37:54;;;;;;;5.43;5.13;;;15.00;99.90;;;;;;4985959;28;20052;-75
2021/05/17 13:40:22;;;;;;;6.10;5.80;;;14.90;99.90;;;;;;5019291;28;20509;-75
2021/05/17 13:42:49;;;;;;;6.40;6.10;;;15.00;99.90;;;;;;5001486;28;20066;-75
2021/05/17 13:45:17;;;;;;;4.65;4.45;;;15.00;99.90;;;;;;5001394;28;20108;-75
2021/05/17 13:47:45;;;;;;;4.82;4.55;;;15.50;99.90;;;;;;4999335;28;20046;-75
2021/05/17 13:50:15;;;;;;;6.43;5.95;;;15.70;99.90;;;;;;4996268;28;20116;-73
2021/05/17 13:52:42;;;;;;;7.10;6.68;;;15.40;99.90;;;;;;5002911;28;20128;-74
2021/05/17 13:55:11;;;;;;;7.50;7.10;;;15.20;99.90;;;;;;5000027;28;20049;-75
2021/05/17 13:57:39;;;;;;;6.82;6.45;;;15.00;99.90;;;;;;4957024;28;20045;-74
2021/05/17 14:00:08;;;;;;;6.30;6.00;;;14.80;99.90;;;;;;4951957;28;20058;-73
2021/05/17 14:02:39;;;;;;;5.68;5.35;;;14.50;99.90;;;;;;4981877;28;20344;-73